createdAt,value
2023-02-19T00:01:52.450Z,18.03
2023-02-19T00:04:22.603Z,36.77
2023-02-19T00:06:50.835Z,41.40
2023-02-19T00:09:20.231Z,40.63
2023-02-19T00:11:48.322Z,37.53
2023-02-19T00:14:19.519Z,34.90
2023-02-19T00:16:48.196Z,36.03
2023-02-19T00:19:19.816Z,38.93
2023-02-19T00:21:52.083Z,42.37
2023-02-19T00:24:21.659Z,42.10
2023-02-19T00:26:49.722Z,42.40
2023-02-19T00:29:20.280Z,45.03
2023-02-19T00:31:49.037Z,30.87
2023-02-19T00:34:16.917Z,58.87
2023-02-19T00:36:44.815Z,57.83
2023-02-19T00:39:18.178Z,55.47
2023-02-19T00:41:46.535Z,52.80
2023-02-19T00:44:15.219Z,64.13
2023-02-19T00:46:46.036Z,63.47
2023-02-19T00:49:18.818Z,70.73
2023-02-19T00:51:47.526Z,56.23
2023-02-19T00:54:17.647Z,57.70
2023-02-19T00:56:46.121Z,59.80
2023-02-19T00:59:14.771Z,53.17
2023-02-19T01:01:47.388Z,64.17
2023-02-19T01:04:16.345Z,65.67
2023-02-19T01:06:44.456Z,64.03
2023-02-19T01:09:12.303Z,51.30
2023-02-19T01:11:41.532Z,54.33
2023-02-19T01:14:10.547Z,55.87
2023-02-19T01:16:38.458Z,48.10
2023-02-19T01:19:06.339Z,50.90
2023-02-19T01:21:34.265Z,47.20
2023-02-19T01:24:02.059Z,37.73
2023-02-19T01:26:32.780Z,50.93
2023-02-19T01:29:03.116Z,61.97
2023-02-19T01:31:32.681Z,67.67
2023-02-19T01:34:04.583Z,66.03
2023-02-19T01:36:34.259Z,61.87
2023-02-19T01:39:05.073Z,46.33
2023-02-19T01:41:39.445Z,80.80
2023-02-19T01:45:05.946Z,72.80
2023-02-19T01:47:33.963Z,69.80
2023-02-19T01:50:01.905Z,73.40
2023-02-19T01:52:34.325Z,68.17
2023-02-19T01:55:08.002Z,72.07
2023-02-19T01:57:43.497Z,63.67
2023-02-19T02:00:16.319Z,62.20
2023-02-19T02:02:52.256Z,58.30
2023-02-19T02:05:37.675Z,45.37
2023-02-19T02:08:24.930Z,55.42
2023-02-19T02:10:54.286Z,57.27
2023-02-19T02:13:22.371Z,67.40
2023-02-19T02:16:05.218Z,71.93
2023-02-19T02:18:51.503Z,75.97
2023-02-19T02:21:53.083Z,65.97
2023-02-19T02:25:04.289Z,66.47
2023-02-19T02:27:49.121Z,60.93
2023-02-19T02:30:32.416Z,68.10
2023-02-19T02:33:17.839Z,67.73
2023-02-19T02:35:51.410Z,61.22
2023-02-19T02:38:28.075Z,34.77
2023-02-19T02:40:57.314Z,61.20
2023-02-19T02:43:26.329Z,55.67
2023-02-19T02:45:56.613Z,59.67
2023-02-19T02:48:40.017Z,48.57
2023-02-19T02:51:17.588Z,48.97
2023-02-19T02:54:17.352Z,43.88
2023-02-19T02:56:48.870Z,48.03
2023-02-19T02:59:23.560Z,34.87
2023-02-19T03:02:11.061Z,31.30
2023-02-19T03:05:11.335Z,38.80
2023-02-19T03:07:45.775Z,27.43
2023-02-19T03:10:23.527Z,26.85
2023-02-19T03:13:14.536Z,25.70
2023-02-19T03:16:09.430Z,28.87
2023-02-19T03:19:01.922Z,32.13
2023-02-19T03:21:31.081Z,33.17
2023-02-19T03:24:17.770Z,34.07
2023-02-19T03:26:53.761Z,32.80
2023-02-19T03:29:27.906Z,33.13
2023-02-19T03:32:06.936Z,37.37
2023-02-19T03:34:43.026Z,36.90
2023-02-19T03:37:16.798Z,37.03
2023-02-19T03:39:45.712Z,32.33
2023-02-19T03:42:36.908Z,37.03
2023-02-19T03:45:32.693Z,36.23
2023-02-19T03:48:22.970Z,39.47
2023-02-19T03:51:12.877Z,22.13
2023-02-19T03:53:55.782Z,41.47
2023-02-19T03:56:33.874Z,25.27
2023-02-19T03:59:10.946Z,27.27
2023-02-19T04:01:47.132Z,35.50
2023-02-19T04:04:20.329Z,30.67
2023-02-19T04:06:55.320Z,33.57
2023-02-19T04:09:29.912Z,32.28
2023-02-19T04:12:07.241Z,31.80
2023-02-19T04:14:43.157Z,26.50
2023-02-19T04:17:20.031Z,26.83
2023-02-19T04:19:51.364Z,28.37
2023-02-19T04:22:22.987Z,30.90
2023-02-19T04:24:54.032Z,32.50
2023-02-19T04:27:21.965Z,31.07
2023-02-19T04:29:49.732Z,32.90
2023-02-19T04:32:17.717Z,31.27
2023-02-19T04:34:45.770Z,35.30
2023-02-19T04:37:13.694Z,34.40
2023-02-19T04:39:42.870Z,29.07
2023-02-19T04:42:11.170Z,32.27
2023-02-19T04:44:38.990Z,25.77
2023-02-19T04:47:06.852Z,33.53
2023-02-19T04:49:34.791Z,18.23
2023-02-19T04:52:02.638Z,26.90
2023-02-19T04:54:30.373Z,26.77
2023-02-19T04:56:59.536Z,28.07
2023-02-19T04:59:27.684Z,20.80
2023-02-19T05:01:57.416Z,32.30
2023-02-19T05:04:25.335Z,31.63
2023-02-19T05:06:53.170Z,23.10
2023-02-19T05:09:21.211Z,26.80
2023-02-19T05:11:48.998Z,32.03
2023-02-19T05:14:18.166Z,25.77
2023-02-19T05:16:46.172Z,28.43
2023-02-19T05:19:14.198Z,22.30
2023-02-19T05:21:42.150Z,23.77
2023-02-19T05:24:10.026Z,25.03
2023-02-19T05:26:37.908Z,20.53
2023-02-19T05:29:05.810Z,25.23
2023-02-19T05:31:35.143Z,24.10
2023-02-19T05:34:03.352Z,19.70
2023-02-19T05:36:32.052Z,20.47
2023-02-19T05:39:00.009Z,22.40
2023-02-19T05:41:30.146Z,31.07
2023-02-19T05:43:58.394Z,30.23
2023-02-19T05:46:32.227Z,31.53
2023-02-19T05:49:01.676Z,29.20
2023-02-19T05:51:29.504Z,29.90
2023-02-19T05:53:58.075Z,28.70
2023-02-19T05:56:33.828Z,30.63
2023-02-19T05:59:06.703Z,32.50
2023-02-19T06:01:35.624Z,29.80
2023-02-19T06:04:05.205Z,26.40
2023-02-19T06:06:33.232Z,29.63
2023-02-19T06:09:01.002Z,32.13
2023-02-19T06:11:30.000Z,33.00
2023-02-19T06:13:57.802Z,33.03
2023-02-19T06:16:25.687Z,21.27
2023-02-19T06:18:53.540Z,25.00
2023-02-19T06:21:22.796Z,25.30
2023-02-19T06:23:50.601Z,28.17
2023-02-19T06:26:22.225Z,23.67
2023-02-19T06:28:52.961Z,17.00
2023-02-19T06:31:23.082Z,28.67
2023-02-19T06:33:51.049Z,22.60
2023-02-19T06:36:22.600Z,24.63
2023-02-19T06:38:51.147Z,23.17
2023-02-19T06:41:19.365Z,26.67
2023-02-19T06:43:47.328Z,24.83
2023-02-19T06:46:15.224Z,27.30
2023-02-19T06:48:45.907Z,25.33
2023-02-19T06:51:23.733Z,16.17
2023-02-19T06:53:53.254Z,22.67
2023-02-19T06:56:25.903Z,28.03
2023-02-19T06:58:56.442Z,23.17
2023-02-19T07:01:24.547Z,24.33
2023-02-19T07:03:52.942Z,23.60
2023-02-19T07:06:22.157Z,23.17
2023-02-19T07:08:55.475Z,26.43
2023-02-19T07:11:24.783Z,27.60
2023-02-19T07:13:55.252Z,19.20
2023-02-19T07:16:24.357Z,30.90
2023-02-19T07:18:52.654Z,26.83
2023-02-19T07:21:20.420Z,27.20
2023-02-19T07:23:48.176Z,25.43
2023-02-19T07:26:19.578Z,31.13
2023-02-19T07:28:50.805Z,38.43
2023-02-19T07:31:22.470Z,33.07
2023-02-19T07:33:51.147Z,31.10
2023-02-19T07:36:20.501Z,34.10
2023-02-19T07:38:55.231Z,28.90
2023-02-19T07:41:25.914Z,32.30
2023-02-19T07:43:56.590Z,29.40
2023-02-19T07:46:24.898Z,28.50
2023-02-19T07:48:52.746Z,25.37
2023-02-19T07:51:21.100Z,6.93
2023-02-19T07:53:52.396Z,8.37
2023-02-19T07:56:21.069Z,11.50
2023-02-19T07:58:50.334Z,8.97
2023-02-19T08:01:40.354Z,11.67
2023-02-19T08:04:08.983Z,8.23
2023-02-19T08:06:36.828Z,7.50
2023-02-19T08:09:05.881Z,8.83
2023-02-19T08:11:52.542Z,5.87
2023-02-19T08:14:25.055Z,7.93
2023-02-19T08:16:54.023Z,6.33
2023-02-19T08:19:22.602Z,5.87
2023-02-19T08:21:50.644Z,8.90
2023-02-19T08:24:18.479Z,6.40
2023-02-19T08:26:46.311Z,6.07
2023-02-19T08:29:14.191Z,6.03
2023-02-19T08:31:43.458Z,8.40
2023-02-19T08:34:11.338Z,8.47
2023-02-19T08:36:39.195Z,7.60
2023-02-19T08:39:07.060Z,5.30
2023-02-19T08:41:34.885Z,6.63
2023-02-19T08:44:02.748Z,6.57
2023-02-19T08:46:31.105Z,6.97
2023-02-19T08:49:01.091Z,9.07
2023-02-19T08:51:28.873Z,6.00
2023-02-19T08:53:56.604Z,10.03
2023-02-19T08:56:24.489Z,8.47
2023-02-19T08:58:52.167Z,6.70
2023-02-19T09:01:20.111Z,6.87
2023-02-19T09:03:48.005Z,9.23
2023-02-19T09:06:20.414Z,5.63
2023-02-19T09:08:48.314Z,7.77
2023-02-19T09:11:16.307Z,7.67
2023-02-19T09:13:44.814Z,9.27
2023-02-19T09:16:13.168Z,4.60
2023-02-19T09:18:41.004Z,3.33
2023-02-19T09:21:09.129Z,4.33
2023-02-19T09:23:38.632Z,6.60
2023-02-19T09:26:09.900Z,8.10
2023-02-19T09:28:41.456Z,9.70
2023-02-19T09:31:12.563Z,10.20
2023-02-19T09:33:43.512Z,10.20
2023-02-19T09:36:12.543Z,14.97
2023-02-19T09:38:42.717Z,10.83
2023-02-19T09:41:22.402Z,10.43
2023-02-19T09:43:51.149Z,10.97
2023-02-19T09:46:30.410Z,10.87
2023-02-19T09:49:05.077Z,14.27
2023-02-19T09:51:37.776Z,12.77
2023-02-19T09:54:17.483Z,16.67
2023-02-19T09:56:45.576Z,14.17
2023-02-19T09:59:22.136Z,17.53
2023-02-19T10:01:57.627Z,12.13
2023-02-19T10:04:25.669Z,17.05
2023-02-19T10:06:58.988Z,14.57
2023-02-19T10:09:31.058Z,16.00
2023-02-19T10:12:00.301Z,15.43
2023-02-19T10:14:38.806Z,13.70
2023-02-19T10:17:20.828Z,13.70
2023-02-19T10:19:49.657Z,9.67
2023-02-19T10:22:18.346Z,16.73
2023-02-19T10:24:52.882Z,18.30
2023-02-19T10:27:20.909Z,15.67
2023-02-19T10:29:54.605Z,20.43
2023-02-19T10:32:25.634Z,12.83
2023-02-19T10:35:11.777Z,15.77
2023-02-19T10:40:17.738Z,13.37
2023-02-19T10:42:48.695Z,15.43
2023-02-19T10:45:22.629Z,14.70
2023-02-19T10:47:52.264Z,13.53
2023-02-19T10:50:29.742Z,10.80
2023-02-19T10:53:00.859Z,15.17
2023-02-19T10:55:37.519Z,16.40
2023-02-19T10:58:26.743Z,12.20
2023-02-19T11:01:13.452Z,13.90
2023-02-19T11:03:41.920Z,10.27
2023-02-19T11:06:13.145Z,8.67
2023-02-19T11:08:57.580Z,11.07
2023-02-19T11:11:34.038Z,12.73
2023-02-19T11:14:12.943Z,12.63
2023-02-19T11:16:45.286Z,7.23
2023-02-19T11:19:31.500Z,8.80
2023-02-19T11:22:01.530Z,10.50
2023-02-19T11:24:35.068Z,6.57
2023-02-19T11:27:16.123Z,11.20
2023-02-19T11:29:44.077Z,5.33
2023-02-19T11:32:29.596Z,6.20
2023-02-19T11:35:18.781Z,5.53
2023-02-19T11:37:59.169Z,5.57
2023-02-19T11:40:41.510Z,5.07
2023-02-19T11:43:44.662Z,6.70
2023-02-19T11:46:22.884Z,8.83
2023-02-19T11:49:03.917Z,4.67
2023-02-19T11:51:57.518Z,6.47
2023-02-19T11:54:51.017Z,5.37
2023-02-19T11:57:38.090Z,7.63
2023-02-19T12:00:24.829Z,7.33
2023-02-19T12:03:23.512Z,9.30
2023-02-19T12:06:18.452Z,8.23
2023-02-19T12:09:10.459Z,8.43
2023-02-19T12:12:04.240Z,9.90
2023-02-19T12:15:06.840Z,9.03
2023-02-19T12:17:57.681Z,9.37
2023-02-19T12:20:34.871Z,9.93
2023-02-19T12:23:37.095Z,9.10
2023-02-19T12:26:20.878Z,9.90
2023-02-19T12:29:15.592Z,9.60
2023-02-19T12:32:20.319Z,7.77
2023-02-19T12:35:25.988Z,8.93
2023-02-19T12:38:10.732Z,7.33
2023-02-19T12:40:57.974Z,6.60
2023-02-19T12:43:26.438Z,8.47
2023-02-19T12:46:00.431Z,7.33
2023-02-19T12:48:35.316Z,7.23
2023-02-19T12:51:11.940Z,5.57
2023-02-19T12:53:48.847Z,5.67
2023-02-19T12:56:24.950Z,7.00
2023-02-19T12:59:02.125Z,5.53
2023-02-19T13:01:41.613Z,6.00
2023-02-19T13:04:29.838Z,5.50
2023-02-19T13:07:05.937Z,5.70
2023-02-19T13:09:39.674Z,5.20
2023-02-19T13:12:14.084Z,5.87
2023-02-19T13:14:46.419Z,4.77
2023-02-19T13:17:26.857Z,4.10
2023-02-19T13:20:07.847Z,4.63
2023-02-19T13:23:04.631Z,3.50
2023-02-19T13:25:50.548Z,4.57
2023-02-19T13:28:42.087Z,3.75
2023-02-19T13:31:41.749Z,5.17
2023-02-19T13:34:24.786Z,3.70
2023-02-19T13:36:54.509Z,3.70
2023-02-19T13:39:23.954Z,4.20
2023-02-19T13:41:55.690Z,4.30
2023-02-19T13:44:28.614Z,4.63
2023-02-19T13:46:57.370Z,4.30
2023-02-19T13:49:48.937Z,6.53
2023-02-19T13:52:40.729Z,3.97
2023-02-19T13:55:53.104Z,4.70
2023-02-19T13:58:54.525Z,3.53
2023-02-19T14:02:26.625Z,3.70
2023-02-19T14:05:00.292Z,3.27
2023-02-19T14:07:58.001Z,3.57
2023-02-19T14:10:57.568Z,3.30
2023-02-19T14:13:56.257Z,3.00
2023-02-19T14:16:47.924Z,3.23
2023-02-19T14:19:50.121Z,4.07
2023-02-19T14:23:04.274Z,3.43
2023-02-19T14:25:47.869Z,2.87
2023-02-19T14:28:36.413Z,3.93
2023-02-19T14:31:29.067Z,3.80
2023-02-19T14:34:01.456Z,4.03
2023-02-19T14:36:39.711Z,3.53
2023-02-19T14:39:16.984Z,4.53
2023-02-19T14:41:49.674Z,5.53
2023-02-19T14:44:23.374Z,5.23
2023-02-19T14:46:59.425Z,5.73
2023-02-19T14:49:36.845Z,4.00
2023-02-19T14:52:15.069Z,6.07
2023-02-19T14:54:50.847Z,3.33
2023-02-19T14:57:27.079Z,4.60
2023-02-19T15:00:00.712Z,4.97
2023-02-19T15:02:32.068Z,3.70
2023-02-19T15:05:00.283Z,4.27
2023-02-19T15:07:33.871Z,4.00
2023-02-19T15:10:06.015Z,4.30
2023-02-19T15:12:45.825Z,4.00
2023-02-19T15:15:23.916Z,4.20
2023-02-19T15:17:54.237Z,4.20
2023-02-19T15:20:26.406Z,4.33
2023-02-19T15:22:59.674Z,5.23
2023-02-19T15:25:34.717Z,4.00
2023-02-19T15:28:28.764Z,5.32
2023-02-19T15:31:12.163Z,3.80
2023-02-19T15:33:48.465Z,3.93
2023-02-19T15:36:24.783Z,3.87
2023-02-19T15:38:57.325Z,5.27
2023-02-19T15:41:30.149Z,4.57
2023-02-19T15:44:15.065Z,4.50
2023-02-19T15:46:46.158Z,3.90
2023-02-19T15:49:19.503Z,3.70
2023-02-19T15:51:54.845Z,4.40
2023-02-19T15:54:30.882Z,4.30
2023-02-19T15:57:06.888Z,4.10
2023-02-19T15:59:44.265Z,3.97
2023-02-19T16:02:14.589Z,7.73
2023-02-19T16:04:45.525Z,5.43
2023-02-19T16:07:26.472Z,4.50
2023-02-19T16:10:21.686Z,4.63
2023-02-19T16:12:58.070Z,4.83
2023-02-19T16:15:28.183Z,4.20
2023-02-19T16:17:57.747Z,5.13
2023-02-19T16:20:29.975Z,5.63
2023-02-19T16:23:03.894Z,5.83
2023-02-19T16:25:41.924Z,4.60
2023-02-19T16:28:13.133Z,7.17
2023-02-19T16:30:42.172Z,5.90
2023-02-19T16:33:36.138Z,5.17
2023-02-19T16:36:39.212Z,6.27
2023-02-19T16:39:20.083Z,5.90
2023-02-19T16:42:16.810Z,6.00
2023-02-19T16:44:48.658Z,7.63
2023-02-19T16:47:29.391Z,6.90
2023-02-19T16:50:00.552Z,5.63
2023-02-19T16:52:29.497Z,7.70
2023-02-19T16:54:57.399Z,6.20
2023-02-19T16:57:26.796Z,6.43
2023-02-19T16:59:54.562Z,7.40
2023-02-19T17:02:24.950Z,7.73
2023-02-19T17:04:55.194Z,7.10
2023-02-19T17:07:23.684Z,8.47
2023-02-19T17:09:51.468Z,11.63
2023-02-19T17:12:20.164Z,9.07
2023-02-19T17:14:49.434Z,9.00
2023-02-19T17:17:17.224Z,10.47
2023-02-19T17:19:45.057Z,9.17
2023-02-19T17:22:16.765Z,10.90
2023-02-19T17:24:46.014Z,10.70
2023-02-19T17:27:14.423Z,8.93
2023-02-19T17:29:44.184Z,10.70
2023-02-19T17:32:14.536Z,10.20
2023-02-19T17:34:42.531Z,9.23
2023-02-19T17:37:10.298Z,10.50
2023-02-19T17:39:38.116Z,8.83
2023-02-19T17:42:06.050Z,10.33
2023-02-19T17:44:33.883Z,11.47
2023-02-19T17:47:01.901Z,10.70
2023-02-19T17:49:31.113Z,10.90
2023-02-19T17:51:59.581Z,12.63
2023-02-19T17:54:27.746Z,11.90
2023-02-19T17:56:55.617Z,24.30
2023-02-19T17:59:23.792Z,12.70
2023-02-19T18:01:51.762Z,12.60
2023-02-19T18:04:19.916Z,13.13
2023-02-19T18:06:49.404Z,12.10
2023-02-19T18:09:19.330Z,12.77
2023-02-19T18:11:47.371Z,16.10
2023-02-19T18:14:15.355Z,12.43
2023-02-19T18:16:49.689Z,11.57
2023-02-19T18:19:18.413Z,20.90
2023-02-19T18:21:46.319Z,13.20
2023-02-19T18:24:15.476Z,17.73
2023-02-19T18:26:43.580Z,13.33
2023-02-19T18:29:11.535Z,16.63
2023-02-19T18:31:39.472Z,17.53
2023-02-19T18:34:17.589Z,34.27
2023-02-19T18:36:46.039Z,40.37
2023-02-19T18:39:15.977Z,13.90
2023-02-19T18:41:47.899Z,14.47
2023-02-19T18:44:18.708Z,10.83
2023-02-19T18:46:46.813Z,13.03
2023-02-19T18:49:15.255Z,12.20
2023-02-19T18:51:44.079Z,11.00
2023-02-19T18:54:11.863Z,10.40
2023-02-19T18:56:46.247Z,11.67
2023-02-19T18:59:14.172Z,8.97
2023-02-19T19:01:42.555Z,10.63
2023-02-19T19:04:10.616Z,8.87
2023-02-19T19:06:38.533Z,8.37
2023-02-19T19:09:06.617Z,10.23
2023-02-19T19:11:35.422Z,6.77
2023-02-19T19:14:04.778Z,6.80
2023-02-19T19:16:32.580Z,7.17
2023-02-19T19:19:00.585Z,6.10
2023-02-19T19:21:28.606Z,4.73
2023-02-19T19:23:56.395Z,3.87
2023-02-19T19:26:24.276Z,5.27
2023-02-19T19:28:52.090Z,5.00
2023-02-19T19:31:22.849Z,5.20
2023-02-19T19:33:51.182Z,5.90
2023-02-19T19:36:22.047Z,6.17
2023-02-19T19:38:49.837Z,6.13
2023-02-19T19:41:20.076Z,7.53
2023-02-19T19:43:48.395Z,5.90
2023-02-19T19:46:19.734Z,5.93
2023-02-19T19:48:52.848Z,6.77
2023-02-19T19:51:20.863Z,8.03
2023-02-19T19:53:50.363Z,6.67
2023-02-19T19:56:18.588Z,7.47
2023-02-19T19:58:48.102Z,7.87
2023-02-19T20:01:20.813Z,7.00
2023-02-19T20:03:53.446Z,7.37
2023-02-19T20:06:27.492Z,7.47
2023-02-19T20:08:55.358Z,7.10
2023-02-19T20:11:23.648Z,5.97
2023-02-19T20:13:51.714Z,5.60
2023-02-19T20:16:25.074Z,6.40
2023-02-19T20:18:54.644Z,8.27
2023-02-19T20:21:22.498Z,14.77
2023-02-19T20:23:50.399Z,19.67
2023-02-19T20:26:24.316Z,8.60
2023-02-19T20:28:52.571Z,7.70
2023-02-19T20:31:20.844Z,8.27
2023-02-19T20:33:51.051Z,6.70
2023-02-19T20:36:20.672Z,8.53
2023-02-19T20:38:49.917Z,6.70
2023-02-19T20:41:17.618Z,7.43
2023-02-19T20:43:45.358Z,5.73
2023-02-19T20:46:13.558Z,7.27
2023-02-19T20:48:41.643Z,6.97
2023-02-19T20:51:09.571Z,6.07
2023-02-19T20:53:40.702Z,5.93
2023-02-19T20:56:08.812Z,6.87
2023-02-19T20:58:37.050Z,6.43
2023-02-19T21:01:05.400Z,6.33
2023-02-19T21:03:33.316Z,7.87
2023-02-19T21:06:01.028Z,7.97
2023-02-19T21:08:28.848Z,8.97
2023-02-19T21:10:58.014Z,6.40
2023-02-19T21:13:25.800Z,7.60
2023-02-19T21:15:53.634Z,7.33
2023-02-19T21:18:21.820Z,6.70
2023-02-19T21:20:49.682Z,8.67
2023-02-19T21:23:17.591Z,7.97
2023-02-19T21:25:45.634Z,7.90
2023-02-19T21:28:14.871Z,7.27
2023-02-19T21:30:42.695Z,8.00
2023-02-19T21:33:10.504Z,7.93
2023-02-19T21:35:38.261Z,6.37
2023-02-19T21:38:06.099Z,6.83
2023-02-19T21:40:34.124Z,6.90
2023-02-19T21:43:02.021Z,8.57
2023-02-19T21:45:31.149Z,6.77
2023-02-19T21:47:59.047Z,8.07
2023-02-19T21:50:26.872Z,7.40
2023-02-19T21:52:55.192Z,7.23
2023-02-19T21:55:23.139Z,6.47
2023-02-19T21:57:50.873Z,7.57
2023-02-19T22:00:19.423Z,5.77
2023-02-19T22:02:48.755Z,6.73
2023-02-19T22:05:16.774Z,6.13
2023-02-19T22:07:44.663Z,6.30
2023-02-19T22:10:13.422Z,6.40
2023-02-19T22:12:41.206Z,6.10
2023-02-19T22:15:08.967Z,6.80
2023-02-19T22:17:36.816Z,6.93
2023-02-19T22:20:07.683Z,8.13
2023-02-19T22:22:35.450Z,7.83
2023-02-19T22:25:03.287Z,8.10
2023-02-19T22:27:31.338Z,6.53
2023-02-19T22:29:59.588Z,8.43
2023-02-19T22:32:27.738Z,7.03
2023-02-19T22:34:55.627Z,8.03
2023-02-19T22:37:24.764Z,8.97
2023-02-19T22:39:52.923Z,10.27
2023-02-19T22:42:21.025Z,9.27
2023-02-19T22:44:48.960Z,9.67
2023-02-19T22:47:19.065Z,10.87
2023-02-19T22:49:47.044Z,9.40
2023-02-19T22:52:15.045Z,10.47
2023-02-19T22:54:44.217Z,10.30
2023-02-19T22:57:12.024Z,11.13
2023-02-19T22:59:39.845Z,11.93
2023-02-19T23:02:07.700Z,12.10
2023-02-19T23:04:35.637Z,13.40
2023-02-19T23:07:05.226Z,15.87
2023-02-19T23:09:33.182Z,15.67
2023-02-19T23:12:04.939Z,17.50
2023-02-19T23:14:33.148Z,17.10
2023-02-19T23:17:01.108Z,17.63
2023-02-19T23:19:29.329Z,14.37
2023-02-19T23:21:57.356Z,14.87
2023-02-19T23:24:25.252Z,17.70
2023-02-19T23:26:53.922Z,16.57
2023-02-19T23:29:26.430Z,18.93
2023-02-19T23:31:55.137Z,19.60
2023-02-19T23:34:24.233Z,17.73
2023-02-19T23:36:52.366Z,17.47
2023-02-19T23:39:21.764Z,16.20
2023-02-19T23:41:54.110Z,18.70
2023-02-19T23:44:25.590Z,16.60
2023-02-19T23:46:53.569Z,15.47
2023-02-19T23:49:21.673Z,16.60
2023-02-19T23:51:49.581Z,17.17
2023-02-19T23:54:17.431Z,15.20
2023-02-19T23:56:45.300Z,15.13
2023-02-19T23:59:13.273Z,15.70
